Time;durP1;ratioP1;P1;durP2;ratioP2;P2;SDS_P1;SDS_P2;PMS_P1;PMS_P2;Temp;Humidity;BMP_temperature;BMP_pressure;BME280_temperature;BME280_humidity;BME280_pressure;Samples;Min_cycle;Max_cycle;Signal;HPM_P1;HPM_P2
2021/01/21 00:00:48;;;;;;;15.68;10.55;;;;;;;-2.07;83.67;95403.44;4970465;28;20037;-72
2021/01/21 00:03:14;;;;;;;13.98;10.57;;;;;;;-2.06;83.94;95412.69;5004822;28;20037;-72
2021/01/21 00:05:39;;;;;;;15.52;11.20;;;;;;;-2.18;83.12;95414.16;4992591;28;20030;-72
2021/01/21 00:08:05;;;;;;;15.15;11.88;;;;;;;-2.25;83.81;95426.34;4985607;28;20084;-72
2021/01/21 00:10:30;;;;;;;18.55;13.00;;;;;;;-2.21;82.80;95425.28;4969937;28;20200;-72
2021/01/21 00:12:55;;;;;;;15.02;11.48;;;;;;;-2.36;83.50;95417.69;4986134;28;20019;-72
2021/01/21 00:15:21;;;;;;;14.23;11.10;;;;;;;-2.40;84.10;95421.28;4969758;28;20471;-72
2021/01/21 00:17:46;;;;;;;17.85;11.23;;;;;;;-2.49;84.07;95419.22;4986387;28;20498;-72
2021/01/21 00:20:12;;;;;;;15.18;9.98;;;;;;;-2.46;83.61;95422.41;5001987;28;20455;-72
2021/01/21 00:22:38;;;;;;;12.68;9.88;;;;;;;-2.43;82.60;95416.38;4987265;28;20027;-72
2021/01/21 00:25:04;;;;;;;15.70;10.43;;;;;;;-2.50;84.02;95415.03;5001987;28;20034;-72
2021/01/21 00:27:30;;;;;;;12.98;10.40;;;;;;;-2.51;83.70;95416.78;4969570;28;20033;-72
2021/01/21 00:29:55;;;;;;;14.80;10.07;;;;;;;-2.58;83.99;95418.00;4987225;28;20054;-72
2021/01/21 00:32:21;;;;;;;13.18;9.18;;;;;;;-2.71;83.32;95417.00;5001999;28;20057;-73
2021/01/21 00:34:46;;;;;;;12.93;9.88;;;;;;;-2.71;84.34;95417.84;5002348;28;20045;-72
2021/01/21 00:37:12;;;;;;;15.48;9.77;;;;;;;-2.75;84.16;95420.59;4986943;28;20033;-72
2021/01/21 00:39:37;;;;;;;17.80;10.98;;;;;;;-2.86;84.78;95417.81;4985900;28;20052;-72
2021/01/21 00:42:03;;;;;;;11.10;9.50;;;;;;;-3.00;85.18;95420.22;5001546;28;20153;-72
2021/01/21 00:44:28;;;;;;;14.75;9.55;;;;;;;-2.92;84.87;95424.00;5002137;28;20027;-72
2021/01/21 00:46:54;;;;;;;12.65;9.20;;;;;;;-2.86;83.86;95421.13;4986599;28;20018;-72
2021/01/21 00:49:19;;;;;;;11.88;9.20;;;;;;;-2.84;83.85;95404.16;5002146;28;20484;-72
2021/01/21 00:51:45;;;;;;;12.43;10.00;;;;;;;-2.92;83.70;95410.53;5001683;28;20084;-73
2021/01/21 00:54:10;;;;;;;15.23;10.73;;;;;;;-3.13;84.78;95412.44;4985214;28;20026;-73
2021/01/21 00:56:35;;;;;;;14.68;10.27;;;;;;;-3.25;86.11;95413.06;4985895;28;20042;-73
2021/01/21 00:59:01;;;;;;;12.88;10.50;;;;;;;-3.15;85.68;95410.88;4986294;28;20026;-72
2021/01/21 01:01:26;;;;;;;12.02;8.50;;;;;;;-3.20;86.04;95411.91;4985513;28;20480;-72
2021/01/21 01:03:52;;;;;;;11.85;8.88;;;;;;;-3.21;86.01;95405.22;4986396;28;20400;-72
2021/01/21 01:06:17;;;;;;;12.80;8.40;;;;;;;-3.15;84.29;95399.03;5004439;28;20033;-73
2021/01/21 01:08:43;;;;;;;14.05;9.10;;;;;;;-3.12;84.82;95405.66;5004872;28;20040;-72
2021/01/21 01:11:08;;;;;;;13.77;9.30;;;;;;;-2.97;84.57;95403.16;4989580;28;20031;-72
2021/01/21 01:13:34;;;;;;;14.45;10.27;;;;;;;-3.07;84.96;95401.97;4985170;28;20042;-72
2021/01/21 01:15:59;;;;;;;11.48;8.68;;;;;;;-3.01;84.94;95395.78;4985758;28;20034;-72
2021/01/21 01:18:25;;;;;;;11.13;8.40;;;;;;;-3.00;85.18;95390.66;4986479;28;20061;-72
2021/01/21 01:20:50;;;;;;;16.83;9.15;;;;;;;-3.03;84.04;95384.91;4985089;28;20065;-72
2021/01/21 01:23:16;;;;;;;16.65;12.35;;;;;;;-3.10;84.60;95394.53;4969294;28;20022;-72
2021/01/21 01:25:41;;;;;;;17.50;11.75;;;;;;;-3.16;85.24;95383.91;4984629;28;20027;-72
2021/01/21 01:28:07;;;;;;;25.85;16.92;;;;;;;-3.14;85.02;95392.25;4985458;28;20027;-72
2021/01/21 01:30:32;;;;;;;15.93;10.55;;;;;;;-3.15;85.43;95393.16;4984844;28;20409;-72
2021/01/21 01:33:00;;;;;;;12.43;9.45;;;;;;;-3.05;84.76;95385.00;4985250;28;20034;-72
2021/01/21 01:35:25;;;;;;;17.98;12.82;;;;;;;-3.06;85.24;95383.38;4993408;28;20511;-70
2021/01/21 01:37:51;;;;;;;20.80;14.43;;;;;;;-3.04;84.97;95385.81;5004487;28;20361;-70
2021/01/21 01:40:17;;;;;;;17.55;11.85;;;;;;;-3.10;84.89;95371.75;5005194;28;20026;-70
2021/01/21 01:42:44;;;;;;;15.63;10.50;;;;;;;-3.11;84.84;95369.31;5004203;28;20880;-70
2021/01/21 01:45:10;;;;;;;15.52;11.82;;;;;;;-3.14;85.60;95375.34;4972625;28;20029;-70
2021/01/21 01:47:41;;;;;;;18.13;12.98;;;;;;;-3.13;84.80;95368.56;5004023;28;20353;-70
2021/01/21 01:50:08;;;;;;;15.13;11.63;;;;;;;-3.05;84.47;95364.72;4971803;28;20041;-70
2021/01/21 01:52:35;;;;;;;17.60;12.63;;;;;;;-3.13;85.46;95359.25;4988060;28;20038;-73
2021/01/21 01:55:00;;;;;;;16.40;12.15;;;;;;;-3.05;85.16;95358.88;4988192;28;20507;-73
2021/01/21 01:57:26;;;;;;;11.45;8.68;;;;;;;-3.08;85.98;95362.34;4988169;28;20041;-73
2021/01/21 01:59:54;;;;;;;9.35;7.55;;;;;;;-3.16;85.90;95356.88;5004318;28;20026;-73
2021/01/21 02:02:19;;;;;;;11.77;8.13;;;;;;;-3.26;85.71;95340.53;4988457;28;20030;-72
2021/01/21 02:04:46;;;;;;;9.63;8.18;;;;;;;-3.10;85.59;95360.81;4986970;28;20045;-72
2021/01/21 02:07:11;;;;;;;10.88;8.38;;;;;;;-3.06;84.35;95359.75;4989867;28;20034;-72
2021/01/21 02:09:37;;;;;;;13.10;10.70;;;;;;;-3.12;85.38;95367.69;4991973;28;20537;-73
2021/01/21 02:12:37;;;;;;;12.85;9.10;;;;;;;-3.22;85.89;95349.59;5007945;28;20034;-72
2021/01/21 02:15:07;;;;;;;10.25;7.90;;;;;;;-3.45;86.18;95355.84;5009376;28;20076;-73
2021/01/21 02:17:44;;;;;;;11.18;7.70;;;;;;;-3.65;86.33;95355.19;5007520;28;20030;-72
2021/01/21 02:20:41;;;;;;;10.40;8.30;;;;;;;-3.46;86.10;95354.19;4992544;28;20691;-72
2021/01/21 02:23:25;;;;;;;11.25;7.93;;;;;;;-3.32;85.83;95351.78;5007842;28;20030;-72
2021/01/21 02:25:52;;;;;;;11.27;8.55;;;;;;;-3.28;85.55;95340.63;5008429;28;20030;-73
2021/01/21 02:28:32;;;;;;;14.93;8.60;;;;;;;-3.29;85.69;95349.09;4991624;28;20037;-73
2021/01/21 02:31:04;;;;;;;14.73;10.65;;;;;;;-3.26;85.23;95348.13;5007642;28;20054;-70
2021/01/21 02:33:54;;;;;;;49.58;24.08;;;;;;;-3.29;85.75;95359.22;4991110;28;20107;-70
2021/01/21 02:36:24;;;;;;;40.03;20.15;;;;;;;-3.25;85.57;95355.66;4991820;28;20038;-70
2021/01/21 02:38:49;;;;;;;23.43;12.87;;;;;;;-3.20;85.19;95353.69;4991047;28;20033;-70
2021/01/21 02:41:14;;;;;;;13.13;8.70;;;;;;;-3.24;85.57;95364.03;4991343;28;20037;-70
2021/01/21 02:43:40;;;;;;;10.63;8.05;;;;;;;-3.20;85.50;95356.22;4990225;28;20080;-70
2021/01/21 02:46:05;;;;;;;12.18;8.77;;;;;;;-3.20;85.86;95363.00;4991392;28;20030;-70
2021/01/21 02:48:31;;;;;;;11.07;9.02;;;;;;;-3.13;85.95;95371.09;5008591;28;20033;-70
2021/01/21 02:51:04;;;;;;;11.90;9.15;;;;;;;-3.12;86.26;95365.97;5007221;28;20026;-70
2021/01/21 02:53:29;;;;;;;10.85;7.82;;;;;;;-3.21;86.19;95369.75;4991199;28;20030;-70
2021/01/21 02:55:59;;;;;;;11.40;8.68;;;;;;;-3.10;86.13;95363.34;4990491;28;20427;-70
2021/01/21 02:58:33;;;;;;;11.43;8.02;;;;;;;-3.17;86.14;95367.06;4991491;28;20101;-70
2021/01/21 03:01:00;;;;;;;10.27;8.02;;;;;;;-3.39;86.11;95359.75;4990290;28;20034;-70
2021/01/21 03:03:25;;;;;;;12.10;7.85;;;;;;;-3.44;86.27;95359.19;4990717;28;20026;-70
2021/01/21 03:05:54;;;;;;;12.00;8.65;;;;;;;-3.35;86.32;95354.47;5006625;28;20038;-70
2021/01/21 03:08:20;;;;;;;14.73;8.90;;;;;;;-3.24;85.33;95366.56;5006692;28;20333;-73
2021/01/21 03:10:45;;;;;;;42.67;25.98;;;;;;;-3.27;86.32;95362.50;4974210;28;20095;-74
2021/01/21 03:13:10;;;;;;;26.83;15.85;;;;;;;-3.25;86.15;95357.34;5006382;28;20038;-73
2021/01/21 03:15:36;;;;;;;16.30;10.85;;;;;;;-3.20;85.71;95360.47;5006825;28;20026;-73
2021/01/21 03:18:02;;;;;;;13.73;10.60;;;;;;;-3.18;86.00;95362.94;4989300;28;20088;-73
2021/01/21 03:20:27;;;;;;;17.75;11.88;;;;;;;-3.21;85.25;95362.16;4990681;28;20108;-73
2021/01/21 03:22:53;;;;;;;14.60;11.15;;;;;;;-3.16;85.02;95361.94;5007626;28;20026;-73
2021/01/21 03:25:18;;;;;;;21.25;12.95;;;;;;;-3.17;85.13;95367.06;5008156;28;20033;-73
2021/01/21 03:27:44;;;;;;;19.55;13.25;;;;;;;-3.33;85.53;95367.03;5007861;28;20040;-71
2021/01/21 03:30:09;;;;;;;20.40;14.95;;;;;;;-3.31;85.68;95365.28;5006178;28;20103;-70
2021/01/21 03:32:35;;;;;;;11.90;9.40;;;;;;;-3.37;85.84;95353.72;5006465;28;20037;-71
2021/01/21 03:35:01;;;;;;;15.65;10.25;;;;;;;-3.41;86.10;95354.78;5006770;28;20022;-70
2021/01/21 03:37:26;;;;;;;12.70;9.15;;;;;;;-3.35;85.97;95361.25;4990094;28;20030;-70
2021/01/21 03:39:52;;;;;;;13.32;10.13;;;;;;;-3.23;86.03;95358.09;5007200;28;20041;-71
2021/01/21 03:42:17;;;;;;;17.92;13.15;;;;;;;-3.33;85.33;95361.97;5007611;28;20030;-72
2021/01/21 03:44:43;;;;;;;19.85;13.85;;;;;;;-3.19;86.42;95362.09;4989487;28;20479;-72
2021/01/21 03:47:08;;;;;;;14.75;12.25;;;;;;;-3.21;85.92;95367.22;5005867;28;20029;-73
2021/01/21 03:49:34;;;;;;;15.65;11.07;;;;;;;-3.19;85.92;95367.16;5006571;28;20034;-73
2021/01/21 03:52:00;;;;;;;18.35;10.55;;;;;;;-3.22;86.05;95360.56;5005275;28;20037;-73
2021/01/21 03:54:26;;;;;;;10.50;7.50;;;;;;;-3.19;85.54;95364.63;4990188;28;20030;-73
2021/01/21 03:56:51;;;;;;;10.23;7.93;;;;;;;-3.16;85.80;95367.00;4972979;28;20109;-72
2021/01/21 03:59:17;;;;;;;12.10;8.23;;;;;;;-3.24;85.73;95367.38;5022418;28;20108;-73
2021/01/21 04:01:43;;;;;;;10.05;8.75;;;;;;;-3.50;85.64;95329.13;5005679;28;20056;-73
2021/01/21 04:04:09;;;;;;;14.70;12.88;;;;;;;-3.11;85.69;95367.56;5005835;28;20057;-73
2021/01/21 04:06:34;;;;;;;33.22;23.88;;;;;;;-3.09;85.66;95355.69;4986978;28;20521;-73
2021/01/21 04:08:59;;;;;;;15.70;11.88;;;;;;;-3.19;85.42;95357.03;4975570;28;20029;-73
2021/01/21 04:11:25;;;;;;;17.15;11.55;;;;;;;-3.09;86.04;95367.50;4973303;28;20033;-75
2021/01/21 04:13:51;;;;;;;15.63;12.57;;;;;;;-3.04;85.58;95360.50;4989688;28;20038;-73
2021/01/21 04:16:16;;;;;;;13.10;10.85;;;;;;;-3.19;85.28;95372.22;5002543;28;20026;-73
2021/01/21 04:18:42;;;;;;;13.52;9.52;;;;;;;-3.28;85.73;95377.75;4986918;28;20026;-73
2021/01/21 04:21:07;;;;;;;12.98;9.48;;;;;;;-3.16;85.73;95371.25;5002684;28;20042;-73
2021/01/21 04:23:33;;;;;;;12.73;10.00;;;;;;;-3.14;85.74;95367.75;5002283;28;20488;-73
2021/01/21 04:25:59;;;;;;;16.00;10.50;;;;;;;-3.14;85.16;95365.22;5002196;28;20030;-73
2021/01/21 04:28:25;;;;;;;17.25;12.23;;;;;;;-3.12;84.76;95365.97;5002261;28;20022;-73
2021/01/21 04:30:50;;;;;;;36.35;21.60;;;;;;;-3.15;85.44;95371.19;5000998;28;20053;-73
2021/01/21 04:33:15;;;;;;;50.20;28.80;;;;;;;-3.10;85.32;95366.69;4985837;28;20030;-74
2021/01/21 04:35:41;;;;;;;39.47;22.25;;;;;;;-3.09;84.12;95373.41;4985637;28;20077;-74
2021/01/21 04:38:06;;;;;;;39.15;20.38;;;;;;;-3.17;84.52;95383.09;4969479;28;20041;-73
2021/01/21 04:40:32;;;;;;;43.13;22.77;;;;;;;-3.35;85.69;95379.78;4987208;28;20023;-74
2021/01/21 04:42:57;;;;;;;25.27;15.25;;;;;;;-3.45;85.66;95372.72;4993677;28;20033;-73
2021/01/21 04:45:23;;;;;;;22.10;13.45;;;;;;;-3.38;85.70;95385.00;5005489;28;20026;-73
2021/01/21 04:47:48;;;;;;;28.65;15.82;;;;;;;-3.45;85.60;95383.66;5005206;28;20368;-73
2021/01/21 04:50:14;;;;;;;25.52;15.57;;;;;;;-3.38;85.62;95389.25;5005174;28;20434;-73
2021/01/21 04:52:40;;;;;;;20.40;13.30;;;;;;;-3.54;86.50;95380.78;5000978;28;20030;-73
2021/01/21 04:55:16;;;;;;;13.85;10.77;;;;;;;-3.38;86.97;95384.19;4969628;28;20526;-73
2021/01/21 04:57:45;;;;;;;21.40;12.55;;;;;;;-3.25;86.10;95388.56;4986177;28;20026;-73
2021/01/21 05:00:11;;;;;;;19.17;14.63;;;;;;;-3.37;86.06;95393.41;4986887;28;20408;-76
2021/01/21 05:02:40;;;;;;;21.98;15.73;;;;;;;-3.43;86.49;95388.63;4969542;28;20023;-73
2021/01/21 05:05:09;;;;;;;14.68;12.25;;;;;;;-3.34;86.92;95395.78;4969596;28;20033;-73
2021/01/21 05:07:38;;;;;;;16.05;11.50;;;;;;;-3.32;85.33;95381.34;4969484;28;20084;-73
2021/01/21 05:10:08;;;;;;;20.45;14.65;;;;;;;-3.34;86.07;95386.47;4969492;28;20046;-73
2021/01/21 05:12:33;;;;;;;17.60;12.40;;;;;;;-3.39;86.49;95377.47;4990405;28;20034;-73
2021/01/21 05:14:59;;;;;;;15.50;11.70;;;;;;;-3.43;86.30;95391.16;5005060;28;20084;-73
2021/01/21 05:17:25;;;;;;;15.48;10.95;;;;;;;-3.40;86.03;95388.47;5004956;28;20049;-73
2021/01/21 05:19:53;;;;;;;17.02;11.52;;;;;;;-3.25;85.90;95385.22;5005024;28;20038;-73
2021/01/21 05:22:19;;;;;;;21.88;13.98;;;;;;;-3.18;86.00;95389.06;4984759;28;20038;-73
2021/01/21 05:24:45;;;;;;;49.55;26.85;;;;;;;-3.11;86.50;95385.31;4985676;28;20195;-74
2021/01/21 05:27:10;;;;;;;44.20;24.00;;;;;;;-3.05;86.61;95381.66;4984583;28;20068;-73
2021/01/21 05:29:36;;;;;;;44.45;24.08;;;;;;;-3.11;86.41;95372.66;4987327;28;20045;-73
2021/01/21 05:32:04;;;;;;;70.70;40.22;;;;;;;-3.03;86.00;95385.75;4987767;28;20092;-73
2021/01/21 05:34:32;;;;;;;75.22;44.92;;;;;;;-3.02;85.84;95386.56;4989263;28;20450;-73
2021/01/21 05:36:58;;;;;;;20.58;13.43;;;;;;;-3.33;86.34;95384.75;5004754;28;20419;-73
2021/01/21 05:39:23;;;;;;;13.98;10.25;;;;;;;-3.44;86.70;95387.84;4971990;28;20025;-73
2021/01/21 05:41:48;;;;;;;16.73;10.93;;;;;;;-3.42;86.52;95395.34;5008888;28;20028;-73
2021/01/21 05:44:14;;;;;;;14.77;10.30;;;;;;;-3.30;86.38;95392.19;5008306;28;20030;-73
2021/01/21 05:46:39;;;;;;;15.10;11.43;;;;;;;-3.21;86.74;95387.50;5008537;28;20096;-73
2021/01/21 05:49:05;;;;;;;19.30;12.20;;;;;;;-3.16;87.58;95387.25;5008159;28;20410;-73
2021/01/21 05:51:30;;;;;;;17.75;11.63;;;;;;;-3.14;86.92;95387.16;5008569;28;20018;-73
2021/01/21 05:53:56;;;;;;;14.48;10.38;;;;;;;-2.99;87.23;95387.22;4975653;28;20021;-73
2021/01/21 05:56:22;;;;;;;14.48;10.50;;;;;;;-2.83;86.99;95379.66;4991965;28;20036;-73
2021/01/21 05:58:54;;;;;;;17.77;12.85;;;;;;;-2.77;86.79;95376.78;5007918;28;20458;-73
2021/01/21 06:01:23;;;;;;;36.13;20.92;;;;;;;-2.83;86.02;95377.94;5007890;28;20405;-73
2021/01/21 06:03:49;;;;;;;28.48;14.95;;;;;;;-3.07;86.28;95384.25;5008390;28;20044;-71
2021/01/21 06:06:15;;;;;;;28.05;20.65;;;;;;;-3.10;86.52;95389.47;5007532;28;20491;-71
2021/01/21 06:08:41;;;;;;;27.20;15.93;;;;;;;-3.02;86.36;95386.56;5007966;28;20041;-71
2021/01/21 06:11:10;;;;;;;21.02;16.90;;;;;;;-3.01;86.38;95383.94;5008927;28;20033;-70
2021/01/21 06:13:42;;;;;;;34.35;21.77;;;;;;;-2.79;86.06;95392.06;5007924;28;20029;-71
2021/01/21 06:16:08;;;;;;;30.13;17.25;;;;;;;-2.77;85.90;95384.41;5009605;28;20046;-71
2021/01/21 06:18:33;;;;;;;29.30;19.80;;;;;;;-2.75;85.36;95388.47;4991337;28;20053;-70
2021/01/21 06:21:00;;;;;;;32.72;21.65;;;;;;;-2.71;85.02;95382.34;4974620;28;20026;-73
2021/01/21 06:23:25;;;;;;;17.23;11.65;;;;;;;-2.98;85.99;95393.91;5007103;28;20034;-73
2021/01/21 06:25:52;;;;;;;18.17;12.57;;;;;;;-2.79;85.88;95394.59;5007901;28;20096;-73
2021/01/21 06:28:18;;;;;;;19.00;14.77;;;;;;;-2.70;85.40;95385.72;4998551;28;20474;-73
2021/01/21 06:30:43;;;;;;;24.15;18.05;;;;;;;-2.55;85.01;95384.06;4987762;28;20501;-74
2021/01/21 06:33:09;;;;;;;39.50;25.52;;;;;;;-2.38;84.18;95394.16;4988043;28;20057;-74
2021/01/21 06:35:35;;;;;;;25.83;16.40;;;;;;;-2.53;85.32;95397.47;4987906;28;20022;-73
2021/01/21 06:38:15;;;;;;;26.73;21.27;;;;;;;-2.57;85.77;95398.56;4988134;28;20038;-74
2021/01/21 06:40:43;;;;;;;23.58;18.83;;;;;;;-2.44;85.04;95404.63;4987537;28;20488;-73
2021/01/21 06:43:14;;;;;;;31.70;21.15;;;;;;;-2.42;85.25;95400.28;4987653;28;20482;-73
2021/01/21 06:45:39;;;;;;;17.02;11.25;;;;;;;-2.32;84.99;95397.16;4987381;28;20045;-74
2021/01/21 06:48:09;;;;;;;12.35;9.88;;;;;;;-2.13;84.10;95391.91;5004345;28;20415;-74
2021/01/21 06:50:35;;;;;;;;;;;;;;;-1.90;83.91;95405.88;4988518;28;20038;-74
2021/01/21 06:53:03;;;;;;;19.02;14.80;;;;;;;-1.79;83.40;95403.53;5016744;28;19918;-73
2021/01/21 06:55:28;;;;;;;20.15;14.02;;;;;;;-1.72;83.73;95392.97;5007270;28;20030;-74
2021/01/21 06:57:54;;;;;;;13.32;11.07;;;;;;;-1.48;82.45;95398.38;5006798;28;20388;-74
2021/01/21 07:00:40;;;;;;;16.58;14.05;;;;;;;-1.36;82.45;95394.31;5007394;28;20103;-74
2021/01/21 07:03:06;;;;;;;16.67;12.95;;;;;;;-1.24;82.37;95396.97;5007955;28;20026;-73
2021/01/21 07:05:32;;;;;;;17.05;11.38;;;;;;;-1.09;82.26;95392.69;5006277;28;20105;-73
2021/01/21 07:08:01;;;;;;;12.32;10.00;;;;;;;-0.93;81.33;95393.44;4990773;28;20076;-73
2021/01/21 07:10:39;;;;;;;16.42;11.93;;;;;;;-0.74;81.26;95399.06;4991202;28;20033;-75
2021/01/21 07:13:17;;;;;;;15.50;11.75;;;;;;;-0.77;81.30;95394.16;5008055;28;20038;-74
2021/01/21 07:15:44;;;;;;;15.00;12.40;;;;;;;-0.60;81.54;95393.16;5003686;28;20065;-73
2021/01/21 07:18:33;;;;;;;14.07;11.20;;;;;;;-0.40;80.83;95394.47;4993173;28;20077;-73
2021/01/21 07:20:59;;;;;;;17.33;10.00;;;;;;;-0.68;82.56;95401.25;5000718;28;20038;-73
2021/01/21 07:23:51;;;;;;;25.15;16.38;;;;;;;-1.32;84.43;95398.31;5013672;28;20427;-73
2021/01/21 07:26:41;;;;;;;19.85;12.73;;;;;;;-0.68;81.75;95406.34;4991368;28;20143;-73
2021/01/21 07:29:07;;;;;;;17.42;11.20;;;;;;;-0.45;81.45;95397.28;4997074;28;20031;-73
2021/01/21 07:31:56;;;;;;;16.00;11.77;;;;;;;-0.23;80.34;95402.72;5001080;28;20104;-73
2021/01/21 07:34:39;;;;;;;14.90;11.60;;;;;;;0.03;79.69;95406.19;5005363;28;20046;-73
2021/01/21 07:37:17;;;;;;;14.70;11.20;;;;;;;0.22;79.32;95403.31;5000513;28;20401;-72
2021/01/21 07:39:55;;;;;;;14.40;11.30;;;;;;;0.03;79.92;95397.75;5006597;28;20045;-73
2021/01/21 07:42:22;;;;;;;17.55;14.75;;;;;;;-0.10;79.60;95403.56;5003590;28;20050;-72
2021/01/21 07:44:51;;;;;;;23.80;18.48;;;;;;;0.20;79.71;95398.28;4987315;28;20543;-73
2021/01/21 07:47:29;;;;;;;26.42;18.27;;;;;;;0.52;79.61;95404.69;5003561;28;20018;-73
2021/01/21 07:50:16;;;;;;;31.73;24.90;;;;;;;0.56;79.65;95412.13;5003229;28;20033;-73
2021/01/21 07:52:42;;;;;;;33.92;22.33;;;;;;;0.70;78.74;95396.78;5005961;28;20030;-74
2021/01/21 07:55:07;;;;;;;29.80;22.23;;;;;;;0.69;78.22;95406.16;4987155;28;20483;-74
2021/01/21 07:57:33;;;;;;;54.17;31.40;;;;;;;1.19;77.78;95409.66;5004559;28;20038;-74
2021/01/21 08:00:00;;;;;;;31.63;23.25;;;;;;;1.54;76.54;95402.97;5005057;28;20022;-74
2021/01/21 08:02:25;;;;;;;28.25;22.42;;;;;;;1.52;76.30;95397.94;4988062;28;20521;-74
2021/01/21 08:05:00;;;;;;;44.63;29.77;;;;;;;1.85;74.53;95401.66;4987811;28;20045;-74
2021/01/21 08:07:50;;;;;;;49.88;28.20;;;;;;;1.88;75.21;95396.31;5002854;28;20025;-74
2021/01/21 08:10:25;;;;;;;51.55;36.30;;;;;;;1.92;75.32;95405.41;5000488;28;20036;-73
2021/01/21 08:12:58;;;;;;;56.58;37.75;;;;;;;2.40;73.41;95384.06;5005353;28;20044;-73
2021/01/21 08:15:24;;;;;;;36.38;27.90;;;;;;;2.20;73.95;95392.31;5006334;28;20064;-73
2021/01/21 08:17:50;;;;;;;44.15;28.45;;;;;;;2.56;72.82;95388.88;4994113;28;20886;-74
2021/01/21 08:20:20;;;;;;;415.33;260.80;;;;;;;2.83;72.66;95398.78;4990592;28;20026;-75
2021/01/21 08:23:02;;;;;;;275.98;153.07;;;;;;;3.10;71.50;95389.09;4984664;28;20080;-74
2021/01/21 08:25:43;;;;;;;322.17;159.57;;;;;;;3.37;70.61;95387.00;5002867;28;20563;-74
2021/01/21 08:28:09;;;;;;;374.30;192.40;;;;;;;3.76;69.39;95392.59;5004845;28;20040;-75
2021/01/21 08:30:35;;;;;;;133.55;73.63;;;;;;;3.50;68.86;95376.66;5004332;28;20046;-76
2021/01/21 08:33:12;;;;;;;157.07;92.07;;;;;;;3.58;71.04;95387.13;4986051;28;20049;-74
2021/01/21 08:35:44;;;;;;;73.82;40.70;;;;;;;3.55;70.14;95383.06;5007286;28;20503;-74
2021/01/21 08:38:11;;;;;;;20.17;16.23;;;;;;;2.81;76.57;95390.44;4990983;28;20034;-74
2021/01/21 08:40:37;;;;;;;10.48;9.55;;;;;;;2.63;75.52;95375.50;4996965;28;20458;-73
2021/01/21 08:43:02;;;;;;;9.52;8.52;;;;;;;2.68;76.70;95393.06;4984067;28;20031;-73
2021/01/21 08:45:29;;;;;;;11.00;7.90;;;;;;;2.91;75.26;95388.81;4985114;28;20826;-74
2021/01/21 08:47:54;;;;;;;8.75;7.13;;;;;;;3.31;73.08;95382.34;5001154;28;20047;-73
2021/01/21 08:50:20;;;;;;;8.90;7.28;;;;;;;2.55;76.06;95384.66;5003131;28;20021;-73
2021/01/21 08:53:21;;;;;;;10.43;8.20;;;;;;;1.71;77.59;95389.03;5003857;28;20034;-74
2021/01/21 08:55:47;;;;;;;10.75;7.88;;;;;;;2.18;77.43;95380.59;4991644;28;20173;-73
2021/01/21 08:58:13;;;;;;;10.98;9.38;;;;;;;2.06;76.70;95379.69;4991471;28;20532;-74
2021/01/21 09:00:58;;;;;;;10.32;9.05;;;;;;;2.76;75.61;95384.84;4970643;28;20087;-74
2021/01/21 09:03:53;;;;;;;10.85;8.60;;;;;;;3.23;74.30;95379.56;4988353;28;20088;-74
2021/01/21 09:06:21;;;;;;;10.10;8.15;;;;;;;3.22;73.36;95377.09;5004061;28;20083;-74
2021/01/21 09:08:57;;;;;;;10.65;8.85;;;;;;;3.38;72.93;95365.59;4988889;28;20035;-74
2021/01/21 09:11:33;;;;;;;8.98;8.07;;;;;;;3.63;72.07;95375.56;4982217;28;20026;-73
2021/01/21 09:14:01;;;;;;;9.80;8.88;;;;;;;3.69;71.33;95371.75;4983144;28;20034;-74
2021/01/21 09:16:47;;;;;;;13.30;10.48;;;;;;;3.70;70.41;95360.56;4989091;28;20037;-74
2021/01/21 09:19:32;;;;;;;13.45;10.88;;;;;;;3.50;71.60;95366.41;5007552;28;20112;-74
2021/01/21 09:22:01;;;;;;;14.90;12.07;;;;;;;3.65;71.21;95371.19;5004262;28;20069;-74
2021/01/21 09:24:27;;;;;;;14.85;11.52;;;;;;;3.88;71.81;95373.69;5007175;28;20463;-73
2021/01/21 09:27:12;;;;;;;11.70;10.40;;;;;;;3.77;72.51;95371.97;5008835;28;20101;-72
2021/01/21 09:29:58;;;;;;;15.82;12.98;;;;;;;4.01;71.86;95371.81;5006195;28;20038;-73
2021/01/21 09:32:31;;;;;;;24.10;19.67;;;;;;;3.96;72.67;95368.78;5007152;28;20037;-73
2021/01/21 09:35:05;;;;;;;33.00;24.63;;;;;;;4.14;72.04;95372.47;5006630;28;20149;-73
2021/01/21 09:37:34;;;;;;;32.53;24.70;;;;;;;4.29;71.70;95368.69;5008003;28;20127;-73
2021/01/21 09:39:59;;;;;;;32.10;22.90;;;;;;;3.94;71.99;95370.66;5023551;28;20072;-72
2021/01/21 09:42:25;;;;;;;28.70;20.42;;;;;;;3.95;72.36;95357.69;5007554;28;20026;-74
2021/01/21 09:44:50;;;;;;;23.30;18.80;;;;;;;4.29;70.11;95355.84;5008525;28;20050;-73
2021/01/21 09:47:16;;;;;;;23.15;18.65;;;;;;;4.05;71.30;95356.03;5003344;28;20052;-73
2021/01/21 09:49:42;;;;;;;20.85;16.10;;;;;;;4.11;69.82;95349.66;5007283;28;20041;-73
2021/01/21 09:52:08;;;;;;;20.88;18.30;;;;;;;4.58;69.45;95356.91;5006424;28;20030;-73
2021/01/21 09:54:33;;;;;;;23.00;19.83;;;;;;;4.62;68.72;95349.78;4989679;28;20037;-73
2021/01/21 09:56:59;;;;;;;26.85;18.55;;;;;;;5.03;67.44;95338.66;5003659;28;20441;-73
2021/01/21 09:59:24;;;;;;;23.45;17.00;;;;;;;5.20;66.85;95338.88;4987368;28;20117;-74
2021/01/21 10:01:50;;;;;;;20.70;16.77;;;;;;;5.13;65.57;95336.97;4987019;28;20037;-74
2021/01/21 10:04:15;;;;;;;17.50;11.60;;;;;;;5.35;64.86;95330.84;4985617;28;20031;-74
2021/01/21 10:06:41;;;;;;;13.15;10.27;;;;;;;4.42;67.28;95322.34;4990838;28;20022;-74
2021/01/21 10:09:06;;;;;;;12.85;9.90;;;;;;;5.20;66.69;95322.69;5005716;28;20029;-73
2021/01/21 10:11:32;;;;;;;9.50;8.60;;;;;;;4.58;67.62;95327.88;5003638;28;20030;-74
2021/01/21 10:13:57;;;;;;;10.25;9.10;;;;;;;4.69;70.92;95344.00;4987925;28;20034;-74
2021/01/21 10:16:23;;;;;;;10.18;9.18;;;;;;;5.37;67.65;95328.94;4971944;28;20030;-74
2021/01/21 10:18:48;;;;;;;10.27;9.25;;;;;;;5.68;66.16;95310.00;5001370;28;20030;-75
2021/01/21 10:21:14;;;;;;;10.85;9.55;;;;;;;5.15;67.25;95315.34;5002108;28;20502;-75
2021/01/21 10:23:40;;;;;;;11.45;9.18;;;;;;;5.55;65.45;95312.78;4988114;28;20022;-74
2021/01/21 10:26:05;;;;;;;14.32;10.00;;;;;;;5.72;64.92;95312.13;4987428;28;20026;-75
2021/01/21 10:28:31;;;;;;;12.57;10.23;;;;;;;6.19;64.32;95299.50;4986971;28;20039;-75
2021/01/21 10:30:56;;;;;;;11.85;10.45;;;;;;;6.49;63.87;95313.97;4969583;28;20042;-75
2021/01/21 10:33:21;;;;;;;11.88;9.85;;;;;;;6.22;64.51;95309.53;4987119;28;20026;-74
2021/01/21 10:35:47;;;;;;;12.32;9.60;;;;;;;5.70;66.00;95311.47;4970811;28;20026;-75
2021/01/21 10:38:12;;;;;;;12.93;9.68;;;;;;;6.14;62.79;95299.09;4993304;28;20040;-75
2021/01/21 10:40:39;;;;;;;12.10;9.77;;;;;;;4.82;65.42;95295.06;4990435;28;20076;-75
2021/01/21 10:43:05;;;;;;;13.38;9.93;;;;;;;5.88;64.38;95287.72;4988379;28;20033;-74
2021/01/21 10:45:30;;;;;;;10.98;9.70;;;;;;;5.40;65.04;95283.28;5006003;28;20088;-74
2021/01/21 10:47:56;;;;;;;13.27;9.23;;;;;;;6.28;64.11;95286.66;4991658;28;20035;-75
2021/01/21 10:50:21;;;;;;;11.35;10.20;;;;;;;6.80;61.78;95269.91;5004798;28;20033;-75
2021/01/21 10:52:46;;;;;;;13.23;11.13;;;;;;;5.67;64.77;95274.97;5005874;28;20080;-74
2021/01/21 10:55:12;;;;;;;15.30;10.75;;;;;;;5.59;65.63;95283.31;5005143;28;20455;-74
2021/01/21 10:57:37;;;;;;;15.00;12.05;;;;;;;5.23;67.48;95278.78;5005649;28;20022;-74
2021/01/21 11:00:04;;;;;;;13.20;10.80;;;;;;;4.65;67.28;95267.44;5005521;28;20470;-74
2021/01/21 11:02:30;;;;;;;11.77;9.60;;;;;;;5.10;66.20;95276.44;4989527;28;20030;-74
2021/01/21 11:04:55;;;;;;;13.18;10.05;;;;;;;5.36;65.09;95276.78;5002999;28;20034;-74
2021/01/21 11:07:21;;;;;;;11.77;10.00;;;;;;;4.79;66.85;95272.22;5005758;28;20030;-74
2021/01/21 11:09:46;;;;;;;12.38;10.45;;;;;;;4.91;65.82;95265.28;4985457;28;20034;-73
2021/01/21 11:12:14;;;;;;;16.83;10.75;;;;;;;5.26;64.68;95251.09;4985789;28;20037;-73
2021/01/21 11:14:40;;;;;;;12.27;10.82;;;;;;;5.65;63.34;95239.09;4969076;28;20030;-73
2021/01/21 11:17:05;;;;;;;12.73;10.52;;;;;;;5.60;63.90;95241.28;4985175;28;20026;-73
2021/01/21 11:19:31;;;;;;;12.35;11.10;;;;;;;5.65;62.64;95238.31;4992245;28;20034;-73
2021/01/21 11:21:56;;;;;;;15.85;12.88;;;;;;;5.98;63.05;95245.66;5004538;28;20037;-73
2021/01/21 11:24:22;;;;;;;17.15;14.20;;;;;;;6.23;62.19;95239.13;5004359;28;20088;-73
2021/01/21 11:26:47;;;;;;;14.35;12.85;;;;;;;6.50;61.13;95220.41;5004418;28;20487;-73